Time;durP1;ratioP1;P1;durP2;ratioP2;P2;SDS_P1;SDS_P2;PMS_P1;PMS_P2;Temp;Humidity;BMP_temperature;BMP_pressure;BME280_temperature;BME280_humidity;BME280_pressure;Samples;Min_cycle;Max_cycle;Signal;HPM_P1;HPM_P2
2022/02/16 00:02:22;;;;;;;;;;;20.40;51.90;;;;;;5046363;28;19916;-64
2022/02/16 00:04:48;;;;;;;;;;;20.40;51.90;;;;;;5038215;28;19913;-63
2022/02/16 00:07:13;;;;;;;;;;;20.40;51.90;;;;;;5024915;28;19940;-63
2022/02/16 00:09:39;;;;;;;;;;;20.40;51.90;;;;;;5036020;28;19931;-63
2022/02/16 00:12:04;;;;;;;;;;;20.40;51.90;;;;;;5044885;28;19912;-62
2022/02/16 00:14:30;;;;;;;;;;;20.40;51.80;;;;;;5043966;28;19916;-63
2022/02/16 00:16:55;;;;;;;;;;;20.40;51.80;;;;;;5041506;28;19960;-63
2022/02/16 00:19:21;;;;;;;;;;;20.40;51.80;;;;;;5026797;28;19912;-62
2022/02/16 00:21:46;;;;;;;;;;;20.40;51.80;;;;;;5029888;28;20403;-63
2022/02/16 00:24:12;;;;;;;;;;;20.40;51.70;;;;;;5040714;28;19913;-61
2022/02/16 00:26:37;;;;;;;;;;;20.40;51.70;;;;;;5046057;28;20395;-63
2022/02/16 00:29:03;;;;;;;;;;;20.40;51.70;;;;;;5025956;28;19920;-62
2022/02/16 00:31:28;;;;;;;;;;;20.40;51.70;;;;;;5029842;28;19970;-62
2022/02/16 00:33:54;;;;;;;;;;;20.40;51.70;;;;;;5045310;28;19945;-58
2022/02/16 00:36:19;;;;;;;;;;;20.40;51.70;;;;;;5036464;28;19917;-63
2022/02/16 00:38:45;;;;;;;;;;;20.40;51.70;;;;;;5033262;28;19916;-65
2022/02/16 00:41:10;;;;;;;;;;;20.40;51.60;;;;;;5045555;28;19931;-62
2022/02/16 00:43:35;;;;;;;;;;;20.30;51.50;;;;;;5040484;28;19909;-63
2022/02/16 00:46:01;;;;;;;;;;;20.30;51.50;;;;;;5026248;28;20000;-63
2022/02/16 00:48:26;;;;;;;;;;;20.40;51.50;;;;;;5022790;28;20525;-64
2022/02/16 00:50:52;;;;;;;;;;;20.30;51.50;;;;;;5028916;28;19916;-63
2022/02/16 00:53:17;;;;;;;;;;;20.40;51.50;;;;;;5041601;28;19995;-61
2022/02/16 00:55:43;;;;;;;;;;;20.30;51.50;;;;;;5029675;28;19909;-63
2022/02/16 00:58:08;;;;;;;;;;;20.30;51.50;;;;;;5027762;28;19909;-63
2022/02/16 01:00:34;;;;;;;;;;;20.30;51.50;;;;;;5024711;28;20326;-60
2022/02/16 01:02:59;;;;;;;;;;;20.30;51.50;;;;;;5024001;28;19929;-63
2022/02/16 01:05:25;;;;;;;;;;;20.30;51.50;;;;;;5024331;28;19909;-63
2022/02/16 01:07:50;;;;;;;;;;;20.30;51.40;;;;;;5023442;28;20368;-62
2022/02/16 01:10:16;;;;;;;;;;;20.30;51.40;;;;;;5024921;28;19967;-63
2022/02/16 01:12:41;;;;;;;;;;;20.30;51.40;;;;;;5022997;28;20008;-63
2022/02/16 01:15:07;;;;;;;;;;;20.30;51.30;;;;;;5032757;28;19921;-61
2022/02/16 01:17:32;;;;;;;;;;;20.30;51.30;;;;;;5041588;28;20438;-63
2022/02/16 01:19:58;;;;;;;;;;;20.30;51.40;;;;;;5028090;28;19970;-63
2022/02/16 01:22:23;;;;;;;;;;;20.30;51.40;;;;;;5014073;28;19918;-62
2022/02/16 01:24:48;;;;;;;;;;;20.20;51.30;;;;;;5036122;28;19943;-63
2022/02/16 01:27:14;;;;;;;;;;;20.30;51.30;;;;;;5026182;28;19916;-62
2022/02/16 01:29:39;;;;;;;;;;;20.20;51.30;;;;;;5019787;28;19917;-61
2022/02/16 01:32:05;;;;;;;;;;;20.20;51.30;;;;;;5026339;28;20372;-59
2022/02/16 01:34:30;;;;;;;;;;;20.20;51.30;;;;;;5039642;28;19923;-63
2022/02/16 01:36:56;;;;;;;;;;;20.20;51.30;;;;;;5045593;28;19917;-63
2022/02/16 01:39:22;;;;;;;;;;;20.30;51.30;;;;;;5032886;28;19916;-63
2022/02/16 01:41:49;;;;;;;;;;;20.30;51.30;;;;;;5026330;28;19915;-61
2022/02/16 01:44:18;;;;;;;;;;;20.20;51.20;;;;;;5025818;28;19909;-62
2022/02/16 01:46:54;;;;;;;;;;;20.30;51.30;;;;;;5045233;28;19940;-63
2022/02/16 01:49:20;;;;;;;;;;;20.20;51.20;;;;;;5023710;28;19908;-60
2022/02/16 01:51:45;;;;;;;;;;;20.20;51.20;;;;;;5021088;28;19919;-63
2022/02/16 01:54:13;;;;;;;;;;;20.20;51.20;;;;;;5024514;28;19939;-63
2022/02/16 01:56:44;;;;;;;;;;;20.20;51.20;;;;;;5044931;28;19917;-62
2022/02/16 01:59:09;;;;;;;;;;;20.20;51.10;;;;;;5020441;28;20008;-63
2022/02/16 02:01:35;;;;;;;;;;;20.20;51.10;;;;;;5023783;28;19909;-63
2022/02/16 02:04:00;;;;;;;;;;;20.20;51.10;;;;;;5020725;28;19939;-62
2022/02/16 02:06:26;;;;;;;;;;;20.20;51.20;;;;;;5034059;28;20498;-62
2022/02/16 02:08:51;;;;;;;;;;;20.20;51.10;;;;;;5040725;28;19939;-63
2022/02/16 02:11:16;;;;;;;;;;;20.20;51.00;;;;;;5008477;28;19921;-63
2022/02/16 02:13:54;;;;;;;;;;;20.20;51.00;;;;;;5037294;28;19908;-62
2022/02/16 02:16:20;;;;;;;;;;;20.20;51.00;;;;;;5017489;28;20494;-64
2022/02/16 02:18:45;;;;;;;;;;;20.20;51.00;;;;;;5030815;28;19920;-61
2022/02/16 02:21:11;;;;;;;;;;;20.20;51.00;;;;;;5031547;28;20354;-63
2022/02/16 02:23:36;;;;;;;;;;;20.10;50.90;;;;;;5026523;28;19920;-63
2022/02/16 02:26:02;;;;;;;;;;;20.10;51.00;;;;;;5027903;28;19910;-60
2022/02/16 02:28:27;;;;;;;;;;;20.10;51.10;;;;;;5035304;28;20307;-59
2022/02/16 02:30:54;;;;;;;;;;;20.10;51.10;;;;;;5041766;28;19940;-62
2022/02/16 02:33:19;;;;;;;;;;;20.10;51.10;;;;;;5031956;28;19913;-63
2022/02/16 02:35:45;;;;;;;;;;;20.00;51.00;;;;;;5026061;28;20619;-62
2022/02/16 02:38:10;;;;;;;;;;;20.10;51.10;;;;;;5028050;28;19917;-63
2022/02/16 02:40:35;;;;;;;;;;;20.10;51.00;;;;;;5040094;28;19913;-61
2022/02/16 02:43:01;;;;;;;;;;;20.10;51.00;;;;;;5023502;28;20425;-62
2022/02/16 02:45:26;;;;;;;;;;;20.00;50.90;;;;;;5018596;28;19916;-61
2022/02/16 02:47:52;;;;;;;;;;;20.10;51.00;;;;;;5025696;28;20380;-63
2022/02/16 02:50:17;;;;;;;;;;;20.00;50.80;;;;;;5041822;28;19913;-63
2022/02/16 02:52:43;;;;;;;;;;;20.00;50.90;;;;;;5041517;28;19909;-62
2022/02/16 02:55:09;;;;;;;;;;;20.00;50.90;;;;;;5045024;28;20338;-61
2022/02/16 02:57:34;;;;;;;;;;;20.00;50.90;;;;;;5023436;28;20489;-63
2022/02/16 02:59:59;;;;;;;;;;;20.00;50.90;;;;;;5035431;28;20389;-62
2022/02/16 03:02:25;;;;;;;;;;;20.00;51.00;;;;;;5023245;28;19912;-63
2022/02/16 03:04:50;;;;;;;;;;;20.00;51.00;;;;;;5027350;28;19915;-64
2022/02/16 03:07:16;;;;;;;;;;;20.00;51.00;;;;;;5029897;28;20433;-62
2022/02/16 03:09:41;;;;;;;;;;;20.00;50.90;;;;;;5020836;28;19924;-63
2022/02/16 03:12:07;;;;;;;;;;;20.00;50.90;;;;;;5035462;28;20011;-63
2022/02/16 03:14:33;;;;;;;;;;;20.00;50.90;;;;;;5041372;28;20294;-63
2022/02/16 03:16:59;;;;;;;;;;;20.00;50.90;;;;;;5034928;28;19967;-62
2022/02/16 03:19:24;;;;;;;;;;;20.00;50.90;;;;;;5022973;28;19909;-62
2022/02/16 03:21:49;;;;;;;;;;;20.00;50.90;;;;;;5032356;28;19934;-62
2022/02/16 03:24:15;;;;;;;;;;;20.00;50.90;;;;;;5038431;28;19916;-61
2022/02/16 03:26:40;;;;;;;;;;;19.90;50.90;;;;;;5033020;28;19913;-60
2022/02/16 03:29:06;;;;;;;;;;;19.90;50.90;;;;;;5039291;28;19919;-63
2022/02/16 03:31:31;;;;;;;;;;;19.90;50.90;;;;;;5039532;28;19913;-62
2022/02/16 03:33:57;;;;;;;;;;;19.90;50.90;;;;;;5018095;28;19936;-62
2022/02/16 03:36:25;;;;;;;;;;;19.90;50.90;;;;;;5042734;28;20367;-63
2022/02/16 03:38:50;;;;;;;;;;;19.90;51.00;;;;;;5036377;28;20388;-63
2022/02/16 03:41:16;;;;;;;;;;;19.80;50.90;;;;;;5027037;28;19909;-63
2022/02/16 03:43:41;;;;;;;;;;;19.90;50.90;;;;;;5034691;28;19912;-62
2022/02/16 03:46:06;;;;;;;;;;;19.90;50.90;;;;;;5026211;28;19920;-63
2022/02/16 03:48:33;;;;;;;;;;;19.90;50.90;;;;;;5023430;28;20400;-63
2022/02/16 03:50:58;;;;;;;;;;;19.90;50.90;;;;;;5032250;28;19963;-63
2022/02/16 03:53:24;;;;;;;;;;;19.90;50.80;;;;;;5004792;28;19952;-64
2022/02/16 03:55:49;;;;;;;;;;;19.90;50.90;;;;;;5030992;28;19909;-61
2022/02/16 03:58:15;;;;;;;;;;;19.90;50.80;;;;;;5022658;28;20410;-63
2022/02/16 04:00:40;;;;;;;;;;;19.80;50.70;;;;;;5039320;28;19917;-62
2022/02/16 04:03:07;;;;;;;;;;;19.90;50.70;;;;;;5024464;28;19920;-58
2022/02/16 04:05:32;;;;;;;;;;;19.90;50.70;;;;;;5045017;28;20322;-62
2022/02/16 04:07:58;;;;;;;;;;;19.90;50.70;;;;;;5025684;28;19913;-61
2022/02/16 04:10:23;;;;;;;;;;;19.90;50.70;;;;;;5008241;28;19924;-64
2022/02/16 04:12:48;;;;;;;;;;;19.90;50.70;;;;;;5032690;28;19970;-61
2022/02/16 04:15:15;;;;;;;;;;;19.90;50.70;;;;;;5033177;28;19909;-62
2022/02/16 04:17:41;;;;;;;;;;;19.90;50.70;;;;;;5036261;28;19916;-61
2022/02/16 04:20:07;;;;;;;;;;;19.90;50.70;;;;;;5045144;28;20447;-61
2022/02/16 04:22:32;;;;;;;;;;;19.80;50.60;;;;;;5023888;28;19916;-60
2022/02/16 04:24:58;;;;;;;;;;;19.80;50.60;;;;;;5025998;28;19913;-62
2022/02/16 04:27:23;;;;;;;;;;;19.80;50.70;;;;;;5037880;28;19958;-63
2022/02/16 04:29:49;;;;;;;;;;;19.80;50.60;;;;;;5015426;28;19951;-63
2022/02/16 04:32:14;;;;;;;;;;;19.80;50.70;;;;;;5037427;28;20272;-61
2022/02/16 04:34:40;;;;;;;;;;;19.80;50.70;;;;;;5039088;28;19919;-63
2022/02/16 04:37:05;;;;;;;;;;;19.80;50.70;;;;;;5040579;28;20364;-62
2022/02/16 04:39:30;;;;;;;;;;;19.80;50.60;;;;;;5020565;28;19919;-62
2022/02/16 04:41:56;;;;;;;;;;;19.80;50.60;;;;;;5027032;28;19910;-62
2022/02/16 04:44:21;;;;;;;;;;;19.80;50.60;;;;;;5030993;28;19909;-60
2022/02/16 04:46:47;;;;;;;;;;;19.80;50.60;;;;;;5028349;28;19917;-61
2022/02/16 04:49:12;;;;;;;;;;;19.80;50.70;;;;;;5040775;28;19917;-61
2022/02/16 04:51:38;;;;;;;;;;;19.80;50.70;;;;;;5033387;28;20433;-61
2022/02/16 04:54:03;;;;;;;;;;;19.70;50.60;;;;;;5016699;28;19909;-62
2022/02/16 04:56:29;;;;;;;;;;;19.80;50.70;;;;;;5036929;28;20008;-61
2022/02/16 04:58:54;;;;;;;;;;;19.70;50.60;;;;;;5024889;28;19917;-61
2022/02/16 05:01:20;;;;;;;;;;;19.70;50.60;;;;;;5039856;28;19940;-61
2022/02/16 05:03:46;;;;;;;;;;;19.70;50.60;;;;;;5030589;28;19908;-62
2022/02/16 05:06:12;;;;;;;;;;;19.70;50.60;;;;;;5044743;28;19919;-62
2022/02/16 05:08:37;;;;;;;;;;;19.70;50.70;;;;;;5032004;28;20126;-61
2022/02/16 05:11:02;;;;;;;;;;;19.70;50.70;;;;;;5024967;28;19936;-61
2022/02/16 05:13:28;;;;;;;;;;;19.70;50.70;;;;;;5021140;28;19967;-63
2022/02/16 05:15:53;;;;;;;;;;;19.70;50.60;;;;;;5025103;28;19916;-62
2022/02/16 05:18:19;;;;;;;;;;;19.70;50.70;;;;;;5003568;28;19909;-61
2022/02/16 05:20:44;;;;;;;;;;;19.70;50.60;;;;;;5024352;28;19913;-62
2022/02/16 05:23:10;;;;;;;;;;;19.70;50.60;;;;;;5021040;28;19917;-60
2022/02/16 05:25:35;;;;;;;;;;;19.70;50.60;;;;;;5025025;28;19970;-61
2022/02/16 05:28:01;;;;;;;;;;;19.70;50.60;;;;;;5021142;28;19913;-60
2022/02/16 05:30:26;;;;;;;;;;;19.70;50.60;;;;;;5024815;28;19917;-61
2022/02/16 05:32:51;;;;;;;;;;;19.70;50.60;;;;;;5029811;28;20403;-61
2022/02/16 05:35:17;;;;;;;;;;;19.70;50.60;;;;;;5028038;28;19916;-61
2022/02/16 05:37:43;;;;;;;;;;;19.70;50.60;;;;;;5038240;28;19925;-62
2022/02/16 05:40:09;;;;;;;;;;;19.70;50.60;;;;;;5024646;28;19960;-62
2022/02/16 05:42:34;;;;;;;;;;;19.70;50.60;;;;;;5015647;28;19909;-60
2022/02/16 05:45:00;;;;;;;;;;;19.70;50.60;;;;;;5024989;28;19913;-62
2022/02/16 05:47:25;;;;;;;;;;;19.70;50.50;;;;;;5023107;28;19909;-63
2022/02/16 05:49:51;;;;;;;;;;;19.70;50.60;;;;;;5030162;28;20601;-63
2022/02/16 05:52:16;;;;;;;;;;;19.60;50.50;;;;;;5019945;28;19955;-62
2022/02/16 05:54:42;;;;;;;;;;;19.70;50.50;;;;;;5020122;28;19909;-61
2022/02/16 05:57:07;;;;;;;;;;;19.70;50.50;;;;;;5025503;28;19917;-63
2022/02/16 05:59:34;;;;;;;;;;;19.70;50.50;;;;;;5023785;28;19909;-62
2022/02/16 06:02:03;;;;;;;;;;;19.70;51.10;;;;;;5028751;28;19917;-63
2022/02/16 06:04:32;;;;;;;;;;;19.70;50.50;;;;;;5016960;28;19909;-62
2022/02/16 06:06:58;;;;;;;;;;;19.70;50.50;;;;;;5033102;28;19931;-62
2022/02/16 06:09:23;;;;;;;;;;;19.60;50.60;;;;;;5029128;28;19920;-63
2022/02/16 06:11:49;;;;;;;;;;;19.60;50.50;;;;;;5042572;28;19909;-63
2022/02/16 06:14:14;;;;;;;;;;;19.70;50.50;;;;;;5036821;28;20492;-62
2022/02/16 06:16:39;;;;;;;;;;;19.70;50.50;;;;;;5033875;28;19976;-62
2022/02/16 06:19:05;;;;;;;;;;;19.60;50.60;;;;;;5036410;28;19909;-62
2022/02/16 06:21:31;;;;;;;;;;;19.60;50.60;;;;;;5033631;28;20330;-63
2022/02/16 06:23:56;;;;;;;;;;;19.60;50.70;;;;;;5025231;28;19913;-65
2022/02/16 06:26:22;;;;;;;;;;;19.60;50.70;;;;;;5037803;28;20392;-60
2022/02/16 06:28:47;;;;;;;;;;;19.70;50.80;;;;;;5024494;28;19909;-63
2022/02/16 06:31:13;;;;;;;;;;;19.60;50.80;;;;;;5028526;28;20040;-60
2022/02/16 06:33:38;;;;;;;;;;;19.60;50.90;;;;;;5017030;28;19909;-60
2022/02/16 06:36:04;;;;;;;;;;;19.60;51.00;;;;;;5031555;28;19909;-63
2022/02/16 06:38:29;;;;;;;;;;;19.60;51.10;;;;;;5034950;28;19913;-65
2022/02/16 06:40:55;;;;;;;;;;;19.60;51.20;;;;;;5010209;28;19916;-64
2022/02/16 06:43:20;;;;;;;;;;;19.60;51.20;;;;;;5029813;28;19959;-62
2022/02/16 06:45:46;;;;;;;;;;;19.60;51.10;;;;;;5033431;28;19916;-61
2022/02/16 06:48:11;;;;;;;;;;;19.60;51.20;;;;;;5024328;28;19912;-62
2022/02/16 06:50:37;;;;;;;;;;;19.60;51.30;;;;;;5026684;28;20002;-64
2022/02/16 06:53:02;;;;;;;;;;;19.60;51.30;;;;;;5023312;28;19931;-63
2022/02/16 06:55:28;;;;;;;;;;;19.60;51.30;;;;;;5027470;28;19950;-62
2022/02/16 06:57:53;;;;;;;;;;;19.60;51.40;;;;;;4988747;28;19921;-65
2022/02/16 07:00:19;;;;;;;;;;;19.60;51.40;;;;;;5027475;28;20399;-64
2022/02/16 07:02:44;;;;;;;;;;;19.60;51.40;;;;;;5022838;28;19932;-63
2022/02/16 07:05:10;;;;;;;;;;;19.60;51.50;;;;;;5027268;28;20560;-62
2022/02/16 07:07:35;;;;;;;;;;;19.60;51.50;;;;;;5021213;28;19916;-63
2022/02/16 07:10:00;;;;;;;;;;;19.60;51.50;;;;;;5008334;28;20692;-63
2022/02/16 07:12:26;;;;;;;;;;;19.50;51.40;;;;;;5028063;28;19909;-62
2022/02/16 07:14:56;;;;;;;;;;;19.50;51.50;;;;;;5025163;28;19917;-64
2022/02/16 07:17:22;;;;;;;;;;;19.50;51.50;;;;;;5034837;28;20003;-63
2022/02/16 07:19:47;;;;;;;;;;;19.50;51.50;;;;;;5032952;28;19992;-62
2022/02/16 07:22:13;;;;;;;;;;;19.50;51.50;;;;;;5027615;28;19997;-63
2022/02/16 07:24:38;;;;;;;;;;;19.50;51.50;;;;;;5023480;28;20395;-62
2022/02/16 07:27:04;;;;;;;;;;;19.50;51.50;;;;;;5027778;28;19925;-64
2022/02/16 07:29:29;;;;;;;;;;;19.50;51.40;;;;;;5025931;28;19915;-65
2022/02/16 07:31:54;;;;;;;;;;;19.50;51.40;;;;;;5036422;28;20003;-63
2022/02/16 07:34:21;;;;;;;;;;;19.50;52.00;;;;;;5027546;28;19916;-63
2022/02/16 07:36:47;;;;;;;;;;;19.50;51.40;;;;;;5043045;28;20007;-64
2022/02/16 07:39:13;;;;;;;;;;;19.40;51.30;;;;;;5027457;28;19962;-61
2022/02/16 07:41:38;;;;;;;;;;;19.50;51.40;;;;;;5029221;28;20384;-63
2022/02/16 07:44:05;;;;;;;;;;;19.50;51.40;;;;;;5033554;28;19925;-61
2022/02/16 07:46:30;;;;;;;;;;;19.50;51.30;;;;;;5028375;28;19916;-61
2022/02/16 07:48:55;;;;;;;;;;;19.40;51.20;;;;;;5021021;28;20007;-62
2022/02/16 07:51:21;;;;;;;;;;;19.40;51.20;;;;;;5037346;28;19925;-64
2022/02/16 07:53:48;;;;;;;;;;;19.40;51.30;;;;;;5021206;28;19913;-63
2022/02/16 07:56:13;;;;;;;;;;;19.40;51.20;;;;;;5036739;28;19917;-62
2022/02/16 07:58:38;;;;;;;;;;;19.40;51.30;;;;;;5041926;28;20268;-63
2022/02/16 08:01:04;;;;;;;;;;;19.40;51.20;;;;;;5032776;28;19949;-63
2022/02/16 08:03:29;;;;;;;;;;;19.40;51.70;;;;;;5036246;28;19916;-63
2022/02/16 08:05:55;;;;;;;;;;;19.40;52.00;;;;;;5028522;28;19909;-63
2022/02/16 08:08:21;;;;;;;;;;;19.40;52.20;;;;;;5026323;28;19913;-63
2022/02/16 08:10:49;;;;;;;;;;;19.40;52.30;;;;;;5030339;28;20463;-63
2022/02/16 08:13:15;;;;;;;;;;;19.40;52.40;;;;;;5025799;28;20000;-61
2022/02/16 08:15:40;;;;;;;;;;;19.50;52.50;;;;;;5025904;28;19956;-63
2022/02/16 08:18:06;;;;;;;;;;;19.50;52.60;;;;;;5026641;28;20277;-64
2022/02/16 08:20:31;;;;;;;;;;;19.40;52.50;;;;;;5025374;28;19913;-63
2022/02/16 08:22:57;;;;;;;;;;;19.40;52.50;;;;;;5029597;28;19921;-63
2022/02/16 08:25:22;;;;;;;;;;;19.40;52.50;;;;;;5014212;28;20384;-64
2022/02/16 08:27:48;;;;;;;;;;;19.30;52.40;;;;;;5034261;28;19916;-63
2022/02/16 08:30:13;;;;;;;;;;;19.20;52.50;;;;;;5034613;28;19919;-63
2022/02/16 08:32:39;;;;;;;;;;;19.30;52.50;;;;;;5043645;28;20547;-62
2022/02/16 08:35:08;;;;;;;;;;;19.20;52.40;;;;;;5045266;28;19923;-63
2022/02/16 08:37:35;;;;;;;;;;;19.20;52.40;;;;;;5045630;28;19919;-63
2022/02/16 08:40:00;;;;;;;;;;;19.20;52.30;;;;;;5027412;28;20287;-63
2022/02/16 08:42:26;;;;;;;;;;;19.20;52.30;;;;;;5030106;28;19976;-62
2022/02/16 08:44:51;;;;;;;;;;;19.20;52.30;;;;;;5025819;28;19913;-63
2022/02/16 08:47:17;;;;;;;;;;;19.20;52.10;;;;;;5028919;28;19916;-62
2022/02/16 08:49:44;;;;;;;;;;;19.30;52.10;;;;;;5044760;28;19919;-64
2022/02/16 08:52:12;;;;;;;;;;;19.30;51.90;;;;;;5036050;28;19909;-62
2022/02/16 08:54:38;;;;;;;;;;;19.30;51.80;;;;;;5024660;28;19913;-63
2022/02/16 08:57:04;;;;;;;;;;;19.30;51.80;;;;;;5024978;28;20339;-63
2022/02/16 08:59:29;;;;;;;;;;;19.30;51.70;;;;;;5029576;28;19910;-64
2022/02/16 09:01:55;;;;;;;;;;;19.40;51.80;;;;;;5026785;28;20382;-64
2022/02/16 09:04:20;;;;;;;;;;;19.40;51.70;;;;;;5032639;28;20586;-63
2022/02/16 09:07:27;;;;;;;;;;;19.40;51.70;;;;;;5031178;28;19909;-62
2022/02/16 09:09:33;;;;;;;;;;;19.40;51.80;;;;;;5038073;28;19912;-62
2022/02/16 09:11:59;;;;;;;;;;;19.50;52.00;;;;;;5044606;28;19919;-63
2022/02/16 09:14:24;;;;;;;;;;;19.50;52.00;;;;;;5045699;28;19915;-63
2022/02/16 09:16:50;;;;;;;;;;;19.60;52.10;;;;;;5042415;28;20363;-63
2022/02/16 09:19:15;;;;;;;;;;;19.60;52.10;;;;;;5034450;28;19916;-63
2022/02/16 09:21:41;;;;;;;;;;;19.70;52.00;;;;;;5032765;28;19959;-63
2022/02/16 09:24:06;;;;;;;;;;;19.70;52.10;;;;;;5045888;28;19913;-63
2022/02/16 09:26:33;;;;;;;;;;;19.80;52.20;;;;;;5038250;28;20331;-64
2022/02/16 09:28:59;;;;;;;;;;;19.80;52.10;;;;;;5038251;28;19947;-64
2022/02/16 09:31:24;;;;;;;;;;;19.80;52.20;;;;;;5026155;28;19945;-63
2022/02/16 09:33:51;;;;;;;;;;;19.80;52.10;;;;;;5028754;28;19936;-63
2022/02/16 09:36:16;;;;;;;;;;;19.80;52.00;;;;;;5033230;28;19912;-64
2022/02/16 09:38:42;;;;;;;;;;;19.90;52.10;;;;;;5052159;28;19916;-63
2022/02/16 09:41:07;;;;;;;;;;;19.90;52.10;;;;;;5049210;28;19912;-62
2022/02/16 09:43:33;;;;;;;;;;;20.00;52.10;;;;;;5029849;28;19908;-63
2022/02/16 09:45:58;;;;;;;;;;;20.00;52.00;;;;;;5029573;28;19909;-64
2022/02/16 09:48:24;;;;;;;;;;;20.00;51.90;;;;;;5048919;28;19984;-63
2022/02/16 09:50:49;;;;;;;;;;;20.00;51.80;;;;;;5049265;28;20476;-60
2022/02/16 09:53:15;;;;;;;;;;;20.00;51.60;;;;;;5032080;28;19920;-63
2022/02/16 09:55:40;;;;;;;;;;;20.00;51.60;;;;;;5029312;28;19916;-64
2022/02/16 09:58:06;;;;;;;;;;;20.00;51.70;;;;;;5044858;28;19916;-61
2022/02/16 10:00:31;;;;;;;;;;;20.00;51.70;;;;;;5048482;28;19917;-65
2022/02/16 10:02:57;;;;;;;;;;;20.00;51.50;;;;;;5036757;28;19909;-64
2022/02/16 10:05:25;;;;;;;;;;;20.00;51.50;;;;;;5010970;28;19917;-64
2022/02/16 10:07:51;;;;;;;;;;;20.00;51.50;;;;;;5007953;28;19909;-63
2022/02/16 10:10:19;;;;;;;;;;;20.00;51.40;;;;;;5028637;28;19924;-64
2022/02/16 10:12:47;;;;;;;;;;;20.00;51.40;;;;;;5028388;28;19947;-64
2022/02/16 10:15:13;;;;;;;;;;;20.00;51.40;;;;;;5028955;28;19919;-64
2022/02/16 10:17:38;;;;;;;;;;;20.00;51.30;;;;;;5037760;28;19913;-64
2022/02/16 10:20:05;;;;;;;;;;;20.00;51.30;;;;;;5048598;28;19921;-63
2022/02/16 10:22:43;;;;;;;;;;;20.00;51.40;;;;;;5037195;28;19909;-61
2022/02/16 10:25:14;;;;;;;;;;;19.90;51.30;;;;;;5048794;28;20016;-62
2022/02/16 10:27:40;;;;;;;;;;;19.90;51.40;;;;;;5040867;28;20384;-63
2022/02/16 10:30:09;;;;;;;;;;;19.90;51.00;;;;;;5028076;28;19959;-62
2022/02/16 10:32:34;;;;;;;;;;;19.80;51.30;;;;;;5034964;28;20581;-63
2022/02/16 10:35:00;;;;;;;;;;;19.80;51.10;;;;;;5049188;28;19974;-64
2022/02/16 10:37:29;;;;;;;;;;;19.80;51.20;;;;;;5045229;28;19935;-63
2022/02/16 10:40:00;;;;;;;;;;;19.80;51.10;;;;;;5028508;28;19913;-62
2022/02/16 10:42:26;;;;;;;;;;;19.80;51.10;;;;;;5031924;28;19915;-64
2022/02/16 10:45:04;;;;;;;;;;;19.70;51.10;;;;;;5047111;28;19908;-63
2022/02/16 10:47:29;;;;;;;;;;;19.80;50.90;;;;;;5044061;28;20578;-64
2022/02/16 10:49:56;;;;;;;;;;;19.80;50.70;;;;;;5010746;28;19909;-64
2022/02/16 10:52:21;;;;;;;;;;;19.70;50.70;;;;;;5029113;28;19913;-64
2022/02/16 10:54:51;;;;;;;;;;;19.70;50.60;;;;;;5048500;28;19974;-64
2022/02/16 10:57:17;;;;;;;;;;;19.70;50.80;;;;;;5048005;28;19913;-62
2022/02/16 10:59:42;;;;;;;;;;;19.70;50.60;;;;;;5028041;28;19909;-64
2022/02/16 11:02:08;;;;;;;;;;;19.70;50.70;;;;;;5028156;28;20526;-64
2022/02/16 11:04:36;;;;;;;;;;;19.80;50.90;;;;;;5046484;28;19913;-64
2022/02/16 11:07:02;;;;;;;;;;;19.70;51.00;;;;;;5047990;28;19912;-64
2022/02/16 11:09:28;;;;;;;;;;;19.70;51.10;;;;;;5031511;28;20490;-64
2022/02/16 11:11:54;;;;;;;;;;;19.70;51.10;;;;;;5028222;28;19916;-64
2022/02/16 11:14:23;;;;;;;;;;;19.70;51.20;;;;;;5043322;28;20326;-62
2022/02/16 11:16:49;;;;;;;;;;;19.70;51.20;;;;;;5028969;28;19924;-62
2022/02/16 11:19:35;;;;;;;;;;;19.70;51.20;;;;;;5016455;28;19910;-63
2022/02/16 11:22:08;;;;;;;;;;;19.70;51.30;;;;;;5020634;28;20438;-60
2022/02/16 11:24:37;;;;;;;;;;;19.70;51.40;;;;;;5043986;28;19930;-61
2022/02/16 11:27:21;;;;;;;;;;;19.70;51.40;;;;;;5048114;28;19909;-62
2022/02/16 11:29:46;;;;;;;;;;;19.70;51.40;;;;;;5031117;28;19909;-64
2022/02/16 11:32:15;;;;;;;;;;;19.70;51.50;;;;;;5027785;28;20355;-64
2022/02/16 11:34:41;;;;;;;;;;;19.70;51.40;;;;;;5043027;28;19963;-64
2022/02/16 11:37:06;;;;;;;;;;;19.70;52.10;;;;;;5029491;28;19920;-64
2022/02/16 11:39:41;;;;;;;;;;;19.70;51.50;;;;;;5033942;28;19913;-64
2022/02/16 11:42:07;;;;;;;;;;;19.70;51.50;;;;;;5027862;28;19913;-64
2022/02/16 11:44:48;;;;;;;;;;;19.70;51.50;;;;;;5039996;28;20415;-64
2022/02/16 11:47:32;;;;;;;;;;;19.70;51.50;;;;;;5047373;28;20292;-63
2022/02/16 11:49:58;;;;;;;;;;;19.70;51.60;;;;;;5032008;28;19913;-64
2022/02/16 11:52:30;;;;;;;;;;;19.70;51.60;;;;;;5027360;28;19909;-64
2022/02/16 11:54:55;;;;;;;;;;;19.70;51.60;;;;;;5041644;28;19909;-63
2022/02/16 11:57:30;;;;;;;;;;;19.70;51.60;;;;;;5047541;28;19924;-64
2022/02/16 11:59:59;;;;;;;;;;;19.70;51.60;;;;;;5033043;28;19970;-63
2022/02/16 12:02:24;;;;;;;;;;;19.70;51.60;;;;;;5028428;28;19916;-63
2022/02/16 12:04:56;;;;;;;;;;;19.60;51.60;;;;;;5040027;28;19916;-64
2022/02/16 12:07:21;;;;;;;;;;;19.60;51.60;;;;;;5047934;28;19982;-64
2022/02/16 12:10:05;;;;;;;;;;;19.60;51.60;;;;;;5035878;28;20372;-64
2022/02/16 12:12:31;;;;;;;;;;;19.60;51.60;;;;;;5026906;28;20394;-65
2022/02/16 12:14:56;;;;;;;;;;;19.60;51.60;;;;;;5039302;28;19909;-64
2022/02/16 12:17:22;;;;;;;;;;;19.60;51.60;;;;;;5029314;28;19920;-64
2022/02/16 12:19:47;;;;;;;;;;;19.60;51.60;;;;;;5036977;28;19915;-64
2022/02/16 12:22:19;;;;;;;;;;;19.60;51.60;;;;;;5026801;28;20288;-64
2022/02/16 12:24:44;;;;;;;;;;;19.70;51.60;;;;;;5035626;28;20363;-65
2022/02/16 12:27:10;;;;;;;;;;;19.60;51.60;;;;;;5047023;28;19916;-61
2022/02/16 12:29:39;;;;;;;;;;;19.60;51.60;;;;;;5039392;28;19994;-65
2022/02/16 12:32:05;;;;;;;;;;;19.60;51.60;;;;;;5026765;28;19917;-64
2022/02/16 12:34:31;;;;;;;;;;;19.60;51.60;;;;;;5031723;28;20490;-65
2022/02/16 12:37:00;;;;;;;;;;;19.60;51.60;;;;;;5046718;28;20498;-64
2022/02/16 12:39:26;;;;;;;;;;;19.60;51.60;;;;;;5042211;28;19916;-64
2022/02/16 12:41:52;;;;;;;;;;;19.60;51.60;;;;;;5026730;28;19909;-64
2022/02/16 12:44:18;;;;;;;;;;;19.60;51.60;;;;;;5029046;28;19915;-64
2022/02/16 12:46:45;;;;;;;;;;;19.60;51.60;;;;;;5046198;28;19909;-64
2022/02/16 12:49:11;;;;;;;;;;;19.60;51.60;;;;;;5045292;28;19971;-65
2022/02/16 12:51:37;;;;;;;;;;;19.60;51.60;;;;;;5009077;28;19913;-63
2022/02/16 12:54:12;;;;;;;;;;;19.60;51.60;;;;;;5026862;28;19916;-64
2022/02/16 12:56:39;;;;;;;;;;;19.60;51.70;;;;;;5006902;28;19975;-64
2022/02/16 12:59:11;;;;;;;;;;;19.60;51.60;;;;;;5006226;28;19909;-62
2022/02/16 13:01:41;;;;;;;;;;;19.60;51.60;;;;;;5044679;28;19944;-64
2022/02/16 13:04:07;;;;;;;;;;;19.60;51.60;;;;;;5046385;28;20437;-65
2022/02/16 13:06:36;;;;;;;;;;;19.60;51.60;;;;;;5027490;28;19913;-62
2022/02/16 13:09:02;;;;;;;;;;;19.60;51.60;;;;;;5025541;28;19915;-61
2022/02/16 13:11:29;;;;;;;;;;;19.60;51.60;;;;;;5025297;28;19987;-64
2022/02/16 13:14:05;;;;;;;;;;;19.60;51.60;;;;;;5046355;28;19912;-64
2022/02/16 13:16:31;;;;;;;;;;;19.60;51.60;;;;;;5028532;28;20418;-65
2022/02/16 13:19:01;;;;;;;;;;;19.60;51.60;;;;;;5026530;28;19909;-64
2022/02/16 13:21:26;;;;;;;;;;;19.60;51.50;;;;;;5031358;28;20019;-64
2022/02/16 13:24:05;;;;;;;;;;;19.60;51.60;;;;;;5037435;28;19909;-64
2022/02/16 13:26:37;;;;;;;;;;;19.60;51.50;;;;;;5046087;28;19999;-65
2022/02/16 13:29:03;;;;;;;;;;;19.60;51.50;;;;;;5039524;28;20283;-64
2022/02/16 13:31:33;;;;;;;;;;;19.60;51.60;;;;;;5040574;28;20478;-65
2022/02/16 13:33:59;;;;;;;;;;;19.60;51.60;;;;;;5043692;28;20285;-64
2022/02/16 13:36:27;;;;;;;;;;;19.60;51.70;;;;;;5032906;28;20071;-64
2022/02/16 13:39:06;;;;;;;;;;;19.70;51.80;;;;;;5008686;28;19966;-64
2022/02/16 13:41:31;;;;;;;;;;;19.70;52.50;;;;;;5037946;28;21763;-64
2022/02/16 13:43:59;;;;;;;;;;;19.60;51.90;;;;;;5046958;28;19915;-63
2022/02/16 13:46:26;;;;;;;;;;;19.70;51.90;;;;;;5034196;28;19990;-64
2022/02/16 13:48:51;;;;;;;;;;;19.70;52.20;;;;;;5025715;28;19909;-65
2022/02/16 13:51:18;;;;;;;;;;;19.70;52.20;;;;;;5017994;28;20287;-64
2022/02/16 13:53:47;;;;;;;;;;;19.70;52.20;;;;;;5034689;28;19909;-64
2022/02/16 13:56:16;;;;;;;;;;;19.70;52.20;;;;;;5037650;28;19909;-64
2022/02/16 13:58:42;;;;;;;;;;;19.70;52.00;;;;;;5015029;28;19983;-64
2022/02/16 14:01:10;;;;;;;;;;;19.70;52.30;;;;;;5030995;28;19944;-63
2022/02/16 14:03:37;;;;;;;;;;;19.70;52.30;;;;;;5021958;28;19984;-64
2022/02/16 14:06:03;;;;;;;;;;;19.70;52.20;;;;;;5025355;28;19916;-59
2022/02/16 14:08:28;;;;;;;;;;;19.70;52.00;;;;;;5025940;28;19920;-64
2022/02/16 14:10:54;;;;;;;;;;;19.70;51.90;;;;;;5029603;28;19917;-63
2022/02/16 14:13:21;;;;;;;;;;;19.70;52.00;;;;;;5045632;28;19909;-64